• Join FlightAware (Why Join?)
  • Login
  • US Flag 
12:59AM EDT


 

Airport Tracker/Info


-or-


 

Live Flight TrackerFlight Track Log ✈ OPT317 ✈ 05-May-2013 ✈ KNEW - KJAX

Flight Track Log - Related Links

Times and Time Zones

All times are in EDT time to prevent confusion due to time zone crossing. See the OPT317 flight status page for this flight to view local times or setup timezone preferences in your user account.

Time Position Orientation Groundspeed Altitude Reporting Facility
EDT Latitude Longitude Course Direction KTS MPH feet Rate Location/Type
08:25PM 30.1250 -90.0230 North 214 246 6,000  Level FlightAware
08:25PM 30.1480 -90.0210 North 214 246 6,000 3,900 Level FlightAware
08:26PM 30.1790 -89.9590 60° Northeast 296 341 11,600 4,680 Climbing FlightAware
08:27PM 30.1680 -89.9020 103° East 299 344 13,800 1,620 Climbing FlightAware
08:28PM 30.1570 -89.8520 104° East 299 344 13,900 3,120 Climbing FlightAware
08:28PM 30.1660 -89.7640 83° East 299 344 18,000 3,060 Climbing FlightAware
08:29PM 30.1520 -89.7020 105° East 299 344 18,000  Level FlightAware
08:30PM 30.1370 -89.6360 105° East 299 344 18,000  Level FlightAware
08:31PM 30.1250 -89.5840 105° East 299 344 18,000  Level FlightAware
08:31PM 30.1130 -89.5310 105° East 299 344 18,000  Level FlightAware
08:32PM 30.1000 -89.4790 106° East 299 344 18,000 6,540 Level FlightAware
08:33PM 30.2606 -89.2439 106° East 403 464 28,400 6,000 Climbing Houston Center
08:34PM 30.2908 -89.1094 75° East 431 496 29,800 1,200 Climbing Houston Center
08:35PM 30.3242 -88.9667 75° East 461 531 30,900 540 Climbing Houston Center
08:36PM 30.3569 -88.8172 76° East 491 565 31,000  Climbing Houston Center
08:37PM 30.3983 -88.6350 75° East 492 566 31,000 120 Level Houston Center
08:38PM 30.4331 -88.4844 75° East 488 562 31,300 720 Climbing Houston Center
08:39PM 30.4664 -88.3364 75° East 482 555 32,600 1,560 Climbing Houston Center
08:40PM 30.4981 -88.1878 76° East 481 554 34,600 1,500 Climbing Houston Center
08:46PM 30.5210 -87.3500 76° East 435 501 42,900 1,380 Climbing FlightAware
08:46PM 30.5230 -87.2540 89° East 434 499 43,500 720 Climbing FlightAware
08:47PM 30.5240 -87.1550 89° East 433 498 44,000 600 Climbing FlightAware
08:48PM 30.5260 -87.0560 89° East 435 501 44,400 600 Climbing FlightAware
08:49PM 30.5270 -86.9650 89° East 437 503 44,800 420 Climbing FlightAware
08:49PM 30.5290 -86.8570 89° East 446 513 45,000 120 Climbing FlightAware
08:50PM 30.5300 -86.7640 89° East 453 521 45,000  Level FlightAware
08:51PM 30.5330 -86.5890 89° East 468 539 45,000  Level FlightAware
08:52PM 30.5340 -86.4870 89° East 469 540 45,000  Level FlightAware
08:53PM 30.5350 -86.3710 89° East 470 541 45,000  Level FlightAware
08:53PM 30.5360 -86.3020 89° East 472 543 45,000  Level FlightAware
08:54PM 30.5380 -86.1480 89° East 472 543 45,000  Level FlightAware
08:55PM 30.5390 -86.0620 89° East 472 543 45,000  Level FlightAware
08:55PM 30.5400 -85.9760 89° East 472 543 45,000  Level FlightAware
08:56PM 30.5420 -85.8680 89° East 472 543 45,000  Level FlightAware
08:57PM 30.5430 -85.7820 89° East 472 543 45,000  Level FlightAware
08:58PM 30.5450 -85.6960 88° East 472 543 45,000  Level FlightAware
08:58PM 30.5460 -85.6100 89° East 472 543 45,000  Level FlightAware
08:59PM 30.5470 -85.5230 89° East 472 543 45,000  Level FlightAware
09:00PM 30.5490 -85.4160 89° East 472 543 45,000  Level FlightAware
09:00PM 30.5500 -85.3290 89° East 472 543 45,000  Level FlightAware
09:01PM 30.5510 -85.2430 89° East 472 543 45,000  Level FlightAware
09:02PM 30.5530 -85.1570 88° East 472 543 45,000  Level FlightAware
09:02PM 30.5540 -85.0710 89° East 472 543 45,000  Level FlightAware
09:03PM 30.5550 -84.9630 89° East 472 543 45,000 -6,900 Level FlightAware
09:04PM 30.5420 -84.5610 92° East 509 586 33,000 -7,620 Descending FlightAware
09:05PM 30.5420 -84.4580 90° East 509 586 33,000  Level FlightAware
09:06PM 30.5420 -84.3380 90° East 509 586 33,000  Level FlightAware
09:06PM 30.5410 -84.2270 91° East 509 586 33,000  Level FlightAware
09:07PM 30.5400 -84.1260 91° East 508 585 33,000 -780 Level FlightAware
09:08PM 30.5400 -84.0050 90° East 481 554 31,900 -1,920 Descending FlightAware
09:08PM 30.5390 -83.9030 91° East 476 548 30,200 -2,520 Descending FlightAware
09:09PM 30.5380 -83.7970 91° East 476 548 28,600 -1,920 Descending FlightAware
09:10PM 30.5370 -83.6410 90° East 478 550 27,000 -1,920 Descending FlightAware
09:11PM 30.5360 -83.5120 90° East 478 550 25,000 -1,320 Descending FlightAware
09:12PM 30.5360 -83.4250 90° East 478 550 25,000  Level FlightAware
09:12PM 30.5360 -83.3370 90° East 478 550 25,000  Level FlightAware
09:13PM 30.5360 -83.2500 90° East 478 550 25,000  Level FlightAware
09:14PM 30.5360 -83.1410 90° East 478 550 25,000  Level FlightAware
09:14PM 30.5360 -83.0540 90° East 478 550 25,000 -6,660 Level FlightAware
09:15PM 30.5192 -82.9892 90° East 424 488 18,600 -7,140 Descending Jacksonville Center
09:16PM 30.5128 -82.8589 93° East 417 480 16,600 -1,800 Descending Jacksonville Center
09:16PM 30.5128 -82.7575 90° East 399 459 15,600 -1,260 Descending Jacksonville Center
09:17PM 30.5106 -82.7167 94° East 418 481 15,200 -1,500 Descending Jacksonville Center
09:17PM 30.5064 -82.6369 93° East 375 432 14,100 -1,320 Descending Jacksonville Center
09:18PM 30.5064 -82.6106 90° East 380 437 13,900 -1,320 Descending Jacksonville Center
09:18PM 30.5186 -82.5211 81° East 369 425 12,800 -1,320 Descending Jacksonville Center
09:19PM 30.5247 -82.4972 73° East 367 422 12,600 -1,200 Descending Jacksonville Center
09:19PM 30.5369 -82.3958 82° East 366 421 11,600 -1,320 Descending Jacksonville Center
09:20PM 30.5389 -82.3814 81° East 356 410 11,300 -1,200 Descending Jacksonville Center
09:21PM 30.5489 -82.2847 83° East 354 407 10,400 -1,140 Descending Jacksonville Center
09:21PM 30.5511 -82.2703 80° East 356 410 10,200 -1,140 Descending Jacksonville Center
09:22PM 30.5444 -82.1858 95° East 298 343 9,300 -1,140 Descending Jacksonville Center
09:22PM 30.5442 -82.1739 92° East 326 375 9,100 -1,140 Descending Jacksonville Center
09:23PM 30.5231 -82.0944 107° East 302 348 8,200 -1,140 Descending Jacksonville Center
09:24PM 30.4911 -82.0031 112° Southeast 309 356 7,100 -1,260 Descending Jacksonville Center
09:25PM 30.4547 -81.8950 111° Southeast 298 343 5,500 -1,740 Descending Jacksonville Center
09:26PM 30.4292 -81.8231 112° Southeast 261 300 3,500 -1,980 Descending Jacksonville Center
09:27PM 30.4117 -81.7508 106° East 251 289 2,000 -900 Descending Jacksonville Center
09:28PM 30.4047 -81.6836 97° East 172 198 1,800 -420 Descending Jacksonville Center
09:29PM 30.4381 -81.6542 37° Northeast 142 163 1,200 -660 Descending Jacksonville Center
09:30PM 30.4672 -81.6683 337° Northwest 119 137 500 -720 Descending Jacksonville Center
09:32PM 30.4833 -81.6833 311° West  Level FlightAware Approximate
09:39PM 30.4941 -81.6879 311° West  Level Estimated